createdAt,value
2023-04-24T00:00:13.468Z,13.10
2023-04-24T00:01:13.410Z,12.90
2023-04-24T00:02:13.355Z,13.00
2023-04-24T00:03:13.536Z,12.90
2023-04-24T00:04:14.068Z,12.80
2023-04-24T00:05:13.162Z,12.90
2023-04-24T00:06:13.473Z,13.00
2023-04-24T00:07:13.564Z,12.80
2023-04-24T00:08:13.773Z,12.90
2023-04-24T00:09:13.696Z,12.70
2023-04-24T00:10:13.821Z,13.00
2023-04-24T00:11:14.097Z,12.70
2023-04-24T00:12:12.926Z,12.70
2023-04-24T00:13:12.999Z,12.80
2023-04-24T00:14:12.975Z,12.70
2023-04-24T00:15:13.196Z,12.70
2023-04-24T00:16:13.585Z,12.40
2023-04-24T00:17:13.677Z,12.50
2023-04-24T00:18:13.681Z,12.50
2023-04-24T00:19:13.930Z,12.60
2023-04-24T00:20:13.206Z,12.60
2023-04-24T00:21:13.453Z,12.40
2023-04-24T00:22:13.304Z,12.10
2023-04-24T00:23:13.411Z,12.10
2023-04-24T00:24:13.506Z,12.20
2023-04-24T00:25:13.465Z,12.40
2023-04-24T00:26:13.526Z,12.80
2023-04-24T00:27:13.420Z,12.20
2023-04-24T00:28:13.437Z,12.40
2023-04-24T00:29:13.649Z,12.50
2023-04-24T00:30:15.102Z,12.10
2023-04-24T00:31:13.270Z,12.50
2023-04-24T00:32:13.538Z,12.30
2023-04-24T00:33:13.433Z,12.30
2023-04-24T00:34:13.480Z,12.40
2023-04-24T00:35:13.755Z,12.20
2023-04-24T00:36:13.679Z,12.30
2023-04-24T00:37:13.553Z,12.20
2023-04-24T00:38:13.709Z,12.40
2023-04-24T00:39:14.185Z,12.00
2023-04-24T00:40:13.295Z,12.10
2023-04-24T00:41:13.503Z,12.40
2023-04-24T00:42:13.509Z,12.10
2023-04-24T00:43:13.540Z,12.20
2023-04-24T00:44:13.399Z,12.50
2023-04-24T00:45:13.903Z,12.10
2023-04-24T00:46:13.381Z,12.00
2023-04-24T00:47:13.314Z,12.30
2023-04-24T00:48:13.247Z,12.00
2023-04-24T00:49:13.365Z,12.00
2023-04-24T00:50:13.470Z,11.90
2023-04-24T00:51:13.521Z,12.20
2023-04-24T00:52:13.634Z,12.10
2023-04-24T00:53:13.489Z,12.30
2023-04-24T00:54:13.393Z,12.30
2023-04-24T00:55:13.580Z,11.80
2023-04-24T00:56:13.610Z,12.10
2023-04-24T00:57:13.719Z,12.00
2023-04-24T00:58:13.737Z,12.00
2023-04-24T00:59:13.774Z,12.40
2023-04-24T01:00:13.732Z,12.40
2023-04-24T01:01:13.903Z,12.20
2023-04-24T01:02:13.037Z,12.00
2023-04-24T01:03:13.253Z,12.20
2023-04-24T01:04:13.447Z,11.80
2023-04-24T01:05:13.609Z,12.30
2023-04-24T01:06:13.746Z,12.30
2023-04-24T01:07:14.114Z,12.20
2023-04-24T01:08:13.405Z,11.80
2023-04-24T01:09:13.416Z,11.80
2023-04-24T01:10:13.210Z,11.90
2023-04-24T01:11:13.414Z,12.00
2023-04-24T01:12:13.558Z,11.70
2023-04-24T01:13:13.519Z,11.60
2023-04-24T01:14:13.426Z,11.80
2023-04-24T01:15:13.629Z,11.50
2023-04-24T01:16:13.797Z,11.80
2023-04-24T01:17:13.781Z,11.70
2023-04-24T01:18:19.026Z,11.60
2023-04-24T01:19:13.135Z,11.70
2023-04-24T01:20:13.382Z,12.00
2023-04-24T01:21:13.197Z,11.50
2023-04-24T01:22:13.290Z,11.80
2023-04-24T01:23:13.305Z,11.60
2023-04-24T01:24:13.225Z,11.60
2023-04-24T01:25:13.095Z,11.40
2023-04-24T01:26:13.097Z,11.80
2023-04-24T01:27:13.326Z,12.10
2023-04-24T01:28:13.759Z,11.60
2023-04-24T01:29:13.990Z,11.70
2023-04-24T01:30:12.954Z,11.90
2023-04-24T01:31:13.310Z,11.50
2023-04-24T01:32:13.553Z,11.70
2023-04-24T01:33:13.655Z,11.90
2023-04-24T01:34:13.652Z,12.00
2023-04-24T01:35:13.640Z,11.80
2023-04-24T01:36:13.531Z,11.80
2023-04-24T01:37:13.322Z,12.10
2023-04-24T01:38:13.620Z,11.80
2023-04-24T01:39:13.642Z,11.60
2023-04-24T01:40:13.617Z,11.60
2023-04-24T01:41:13.678Z,12.00
2023-04-24T01:42:13.442Z,11.80
2023-04-24T01:43:13.596Z,11.90
2023-04-24T01:44:13.731Z,11.70
2023-04-24T01:45:13.906Z,11.70
2023-04-24T01:46:13.313Z,11.90
2023-04-24T01:47:13.545Z,11.90
2023-04-24T01:48:13.492Z,11.80
2023-04-24T01:49:13.421Z,11.70
2023-04-24T01:50:13.439Z,11.90
2023-04-24T01:51:13.515Z,11.70
2023-04-24T01:52:13.546Z,11.90
2023-04-24T01:53:13.720Z,11.50
2023-04-24T01:54:13.992Z,11.80
2023-04-24T01:55:13.001Z,11.90
2023-04-24T01:56:12.834Z,11.80
2023-04-24T01:57:13.611Z,11.70
2023-04-24T01:58:13.553Z,11.80
2023-04-24T01:59:13.552Z,11.80
2023-04-24T02:00:13.593Z,12.10
2023-04-24T02:01:13.694Z,11.70
2023-04-24T02:02:13.725Z,11.60
2023-04-24T02:03:13.916Z,11.80
2023-04-24T02:04:14.284Z,11.60
2023-04-24T02:05:13.418Z,11.70
2023-04-24T02:06:13.459Z,12.00
2023-04-24T02:07:13.397Z,11.70
2023-04-24T02:08:13.617Z,11.80
2023-04-24T02:09:13.914Z,11.60
2023-04-24T02:10:12.963Z,11.50
2023-04-24T02:11:13.020Z,11.60
2023-04-24T02:12:12.902Z,11.60
2023-04-24T02:13:12.946Z,11.50
2023-04-24T02:14:13.265Z,11.60
2023-04-24T02:15:13.362Z,11.60
2023-04-24T02:16:13.531Z,11.50
2023-04-24T02:17:13.782Z,11.50
2023-04-24T02:18:13.561Z,11.50
2023-04-24T02:19:13.583Z,11.40
2023-04-24T02:20:13.526Z,11.50
2023-04-24T02:21:13.964Z,11.70
2023-04-24T02:22:12.957Z,11.50
2023-04-24T02:23:12.945Z,11.20
2023-04-24T02:24:12.828Z,11.10
2023-04-24T02:25:14.192Z,11.10
2023-04-24T02:26:13.483Z,11.00
2023-04-24T02:27:13.445Z,11.00
2023-04-24T02:28:13.406Z,10.90
2023-04-24T02:29:13.252Z,10.90
2023-04-24T02:30:13.397Z,11.10
2023-04-24T02:31:13.555Z,10.70
2023-04-24T02:32:13.935Z,10.70
2023-04-24T02:33:13.182Z,10.70
2023-04-24T02:34:13.017Z,10.60
2023-04-24T02:35:13.130Z,10.90
2023-04-24T02:36:13.209Z,10.90
2023-04-24T02:37:13.311Z,10.90
2023-04-24T02:38:13.389Z,10.90
2023-04-24T02:39:13.473Z,11.00
2023-04-24T02:40:13.433Z,10.90
2023-04-24T02:41:13.560Z,10.90
2023-04-24T02:42:13.864Z,11.10
2023-04-24T02:43:14.300Z,11.10
2023-04-24T02:44:13.164Z,10.90
2023-04-24T02:45:13.434Z,10.90
2023-04-24T02:46:13.468Z,10.70
2023-04-24T02:47:13.558Z,10.80
2023-04-24T02:48:13.363Z,10.70
2023-04-24T02:49:13.292Z,10.50
2023-04-24T02:50:13.424Z,10.80
2023-04-24T02:51:13.609Z,10.60
2023-04-24T02:52:13.597Z,10.60
2023-04-24T02:53:13.458Z,10.70
2023-04-24T02:54:13.585Z,10.70
2023-04-24T02:55:13.759Z,10.40
2023-04-24T02:56:13.906Z,10.40
2023-04-24T02:57:13.088Z,10.50
2023-04-24T02:58:13.565Z,10.30
2023-04-24T02:59:13.709Z,10.40
2023-04-24T03:00:13.717Z,10.60
2023-04-24T03:01:14.289Z,10.50
2023-04-24T03:02:13.414Z,10.50
2023-04-24T03:03:13.870Z,10.50
2023-04-24T03:04:13.466Z,10.60
2023-04-24T03:05:13.610Z,10.50
2023-04-24T03:06:13.908Z,10.80
2023-04-24T03:07:12.909Z,10.70
2023-04-24T03:08:12.982Z,10.70
2023-04-24T03:09:13.227Z,10.50
2023-04-24T03:10:13.064Z,10.60
2023-04-24T03:11:13.267Z,10.70
2023-04-24T03:12:13.657Z,10.70
2023-04-24T03:13:13.748Z,10.80
2023-04-24T03:14:13.930Z,11.00
2023-04-24T03:15:12.940Z,10.50
2023-04-24T03:16:12.838Z,10.60
2023-04-24T03:17:13.778Z,10.50
2023-04-24T03:18:14.010Z,10.60
2023-04-24T03:19:13.149Z,10.80
2023-04-24T03:20:13.035Z,10.50
2023-04-24T03:21:12.871Z,10.50
2023-04-24T03:22:14.000Z,10.60
2023-04-24T03:23:13.151Z,10.70
2023-04-24T03:24:14.268Z,10.60
2023-04-24T03:25:13.208Z,10.70
2023-04-24T03:26:13.397Z,10.60
2023-04-24T03:27:13.676Z,10.60
2023-04-24T03:28:13.960Z,10.40
2023-04-24T03:29:13.009Z,10.60
2023-04-24T03:30:12.902Z,10.50
2023-04-24T03:31:12.893Z,10.70
2023-04-24T03:32:12.990Z,10.60
2023-04-24T03:33:13.015Z,10.70
2023-04-24T03:34:13.292Z,10.80
2023-04-24T03:35:13.458Z,10.80
2023-04-24T03:36:13.317Z,10.70
2023-04-24T03:37:13.306Z,10.70
2023-04-24T03:38:13.215Z,10.90
2023-04-24T03:39:13.278Z,11.30
2023-04-24T03:40:13.240Z,11.20
2023-04-24T03:41:13.649Z,11.10
2023-04-24T03:42:13.674Z,10.80
2023-04-24T03:43:14.031Z,10.90
2023-04-24T03:44:13.283Z,10.50
2023-04-24T03:45:13.196Z,10.60
2023-04-24T03:46:13.169Z,10.70
2023-04-24T03:47:13.134Z,10.70
2023-04-24T03:48:13.075Z,10.70
2023-04-24T03:49:13.165Z,10.90
2023-04-24T03:50:13.282Z,10.70
2023-04-24T03:51:13.367Z,10.40
2023-04-24T03:52:13.417Z,10.80
2023-04-24T03:53:13.604Z,10.30
2023-04-24T03:54:13.685Z,10.80
2023-04-24T03:55:13.744Z,10.50
2023-04-24T03:56:13.687Z,10.40
2023-04-24T03:57:13.700Z,10.60
2023-04-24T03:58:13.704Z,10.60
2023-04-24T03:59:13.812Z,10.70
2023-04-24T04:00:13.997Z,11.00
2023-04-24T04:01:12.862Z,10.90
2023-04-24T04:02:13.884Z,11.40
2023-04-24T04:03:13.059Z,11.10
2023-04-24T04:04:13.433Z,10.50
2023-04-24T04:05:13.681Z,10.80
2023-04-24T04:06:14.015Z,11.00
2023-04-24T04:07:12.994Z,10.70
2023-04-24T04:08:12.730Z,10.60
2023-04-24T04:09:13.964Z,11.00
2023-04-24T04:10:13.083Z,11.10
2023-04-24T04:11:13.086Z,11.00
2023-04-24T04:12:12.917Z,10.90
2023-04-24T04:13:12.822Z,11.00
2023-04-24T04:14:13.879Z,10.50
2023-04-24T04:15:14.002Z,10.50
2023-04-24T04:16:13.053Z,10.80
2023-04-24T04:17:13.387Z,11.00
2023-04-24T04:18:13.650Z,11.00
2023-04-24T04:19:13.600Z,10.90
2023-04-24T04:20:13.927Z,11.00
2023-04-24T04:21:13.112Z,10.60
2023-04-24T04:22:13.149Z,10.70
2023-04-24T04:23:12.996Z,10.50
2023-04-24T04:24:12.789Z,10.90
2023-04-24T04:25:13.973Z,10.80
2023-04-24T04:26:12.915Z,11.20
2023-04-24T04:27:13.281Z,11.10
2023-04-24T04:28:13.187Z,10.70
2023-04-24T04:29:12.988Z,10.40
2023-04-24T04:30:13.072Z,10.90
2023-04-24T04:31:13.075Z,11.00
2023-04-24T04:32:13.478Z,10.90
2023-04-24T04:33:13.760Z,11.20
2023-04-24T04:34:14.163Z,11.10
2023-04-24T04:35:13.227Z,10.80
2023-04-24T04:36:13.327Z,11.00
2023-04-24T04:37:13.320Z,10.80
2023-04-24T04:38:13.245Z,10.80
2023-04-24T04:39:13.293Z,10.60
2023-04-24T04:40:13.323Z,10.80
2023-04-24T04:41:13.499Z,10.90
2023-04-24T04:42:13.434Z,10.90
2023-04-24T04:43:13.616Z,10.60
2023-04-24T04:44:13.639Z,11.10
2023-04-24T04:45:13.713Z,11.20
2023-04-24T04:46:13.726Z,11.00
2023-04-24T04:47:13.842Z,10.60
2023-04-24T04:48:13.872Z,10.80
2023-04-24T04:49:12.972Z,10.70
2023-04-24T04:50:13.040Z,10.70
2023-04-24T04:51:13.293Z,10.70
2023-04-24T04:52:13.876Z,10.90
2023-04-24T04:53:13.841Z,10.60
2023-04-24T04:54:14.201Z,11.00
2023-04-24T04:55:13.299Z,10.90
2023-04-24T04:56:13.188Z,10.80
2023-04-24T04:57:13.283Z,10.80
2023-04-24T04:58:13.449Z,11.00
2023-04-24T04:59:13.275Z,10.60
2023-04-24T05:00:13.300Z,10.90
2023-04-24T05:01:13.641Z,10.80
2023-04-24T05:02:13.950Z,10.40
2023-04-24T05:04:13.170Z,11.00
2023-04-24T05:05:13.225Z,11.00
2023-04-24T05:06:13.368Z,10.70
2023-04-24T05:07:14.328Z,10.60
2023-04-24T05:09:13.787Z,10.80
2023-04-24T05:10:13.984Z,10.90
2023-04-24T05:11:12.985Z,10.80
2023-04-24T05:12:14.384Z,10.80
2023-04-24T05:13:14.209Z,10.70
2023-04-24T05:14:13.331Z,10.80
2023-04-24T05:15:13.230Z,10.60
2023-04-24T05:16:14.657Z,10.70
2023-04-24T05:17:14.301Z,10.60
2023-04-24T05:18:13.742Z,10.60
2023-04-24T05:19:13.687Z,10.70
2023-04-24T05:20:13.588Z,10.80
2023-04-24T05:22:14.705Z,10.70
2023-04-24T05:23:13.796Z,10.70
2023-04-24T05:24:14.272Z,10.50
2023-04-24T05:25:13.491Z,10.50
2023-04-24T05:26:14.345Z,11.00
2023-04-24T05:27:13.585Z,10.80
2023-04-24T05:28:13.856Z,10.90
2023-04-24T05:29:13.951Z,10.90
2023-04-24T05:30:13.120Z,11.00
2023-04-24T05:31:12.965Z,10.50
2023-04-24T05:32:13.156Z,10.80
2023-04-24T05:33:13.407Z,10.90
2023-04-24T05:34:13.820Z,11.30
2023-04-24T05:35:14.191Z,11.30
2023-04-24T05:36:13.126Z,11.10
2023-04-24T05:37:13.367Z,11.10
2023-04-24T05:38:13.431Z,11.10
2023-04-24T05:39:13.761Z,11.10
2023-04-24T05:40:13.790Z,11.10
2023-04-24T05:41:13.819Z,10.90
2023-04-24T05:42:14.077Z,10.60
2023-04-24T05:43:13.323Z,10.90
2023-04-24T05:44:13.968Z,10.60
2023-04-24T05:45:13.193Z,10.90
2023-04-24T05:46:13.169Z,11.00
2023-04-24T05:47:13.298Z,10.70
2023-04-24T05:48:13.483Z,10.40
2023-04-24T05:49:13.697Z,10.50
2023-04-24T05:50:13.769Z,10.80
2023-04-24T05:51:13.866Z,11.10
2023-04-24T05:52:14.043Z,10.80
2023-04-24T05:53:13.337Z,11.00
2023-04-24T05:54:13.415Z,11.00
2023-04-24T05:55:13.471Z,10.50
2023-04-24T05:56:13.467Z,10.40
2023-04-24T05:57:13.427Z,10.50
2023-04-24T05:58:13.474Z,10.40
2023-04-24T05:59:13.784Z,10.20
2023-04-24T06:00:13.943Z,10.20
2023-04-24T06:01:13.020Z,9.90
2023-04-24T06:02:13.021Z,9.70
2023-04-24T06:03:13.692Z,9.90
2023-04-24T06:04:13.466Z,10.10
2023-04-24T06:05:14.006Z,9.90
2023-04-24T06:06:13.011Z,10.10
2023-04-24T06:07:12.855Z,10.00
2023-04-24T06:08:13.823Z,9.90
2023-04-24T06:09:13.853Z,9.60
2023-04-24T06:10:14.005Z,10.10
2023-04-24T06:11:12.894Z,10.30
2023-04-24T06:12:13.195Z,9.90
2023-04-24T06:13:13.497Z,9.80
2023-04-24T06:14:13.898Z,10.00
2023-04-24T06:15:13.063Z,10.00
2023-04-24T06:16:18.278Z,10.40
2023-04-24T06:17:18.472Z,10.60
2023-04-24T06:18:13.650Z,10.30
2023-04-24T06:19:14.194Z,10.20
2023-04-24T06:20:13.305Z,10.10
2023-04-24T06:21:13.214Z,10.70
2023-04-24T06:22:13.287Z,9.70
2023-04-24T06:23:13.242Z,10.00
2023-04-24T06:24:13.339Z,10.20
2023-04-24T06:25:13.525Z,10.00
2023-04-24T06:26:13.478Z,10.00
2023-04-24T06:27:14.581Z,10.50
2023-04-24T06:28:13.899Z,10.70
2023-04-24T06:29:13.033Z,10.40
2023-04-24T06:30:13.041Z,10.40
2023-04-24T06:31:13.060Z,10.00
2023-04-24T06:32:13.451Z,10.10
2023-04-24T06:34:13.421Z,10.50
2023-04-24T06:35:13.834Z,10.50
2023-04-24T06:36:13.139Z,10.00
2023-04-24T06:37:13.512Z,10.00
2023-04-24T06:38:13.642Z,10.50
2023-04-24T06:39:13.878Z,10.10
2023-04-24T06:40:14.027Z,10.20
2023-04-24T06:41:13.135Z,10.40
2023-04-24T06:42:13.290Z,10.40
2023-04-24T06:43:13.399Z,10.10
2023-04-24T06:44:13.292Z,10.10
2023-04-24T06:45:13.864Z,10.30
2023-04-24T06:46:14.068Z,10.60
2023-04-24T06:47:13.203Z,10.40
2023-04-24T06:48:13.590Z,10.60
2023-04-24T06:49:13.363Z,10.20
2023-04-24T06:50:13.827Z,10.10
2023-04-24T06:51:14.168Z,10.70
2023-04-24T06:52:13.234Z,10.60
2023-04-24T06:53:13.380Z,10.20
2023-04-24T06:54:13.383Z,10.20
2023-04-24T06:55:13.497Z,10.20
2023-04-24T06:56:13.434Z,10.20
2023-04-24T06:57:13.675Z,10.00
2023-04-24T06:58:13.730Z,10.60
2023-04-24T06:59:13.635Z,10.00
2023-04-24T07:00:13.649Z,10.10
2023-04-24T07:01:13.837Z,10.20
2023-04-24T07:02:13.224Z,10.70
2023-04-24T07:03:13.695Z,10.80
2023-04-24T07:04:14.224Z,10.50
2023-04-24T07:05:13.326Z,10.60
2023-04-24T07:06:13.591Z,10.70
2023-04-24T07:07:13.878Z,11.00
2023-04-24T07:08:13.808Z,11.40
2023-04-24T07:09:19.257Z,10.60
2023-04-24T07:10:13.494Z,10.40
2023-04-24T07:11:13.866Z,10.70
2023-04-24T07:12:14.100Z,11.00
2023-04-24T07:13:13.113Z,11.00
2023-04-24T07:14:13.524Z,11.10
2023-04-24T07:15:13.579Z,11.00
2023-04-24T07:16:13.563Z,10.40
2023-04-24T07:17:13.660Z,10.70
2023-04-24T07:18:13.785Z,11.00
2023-04-24T07:19:12.981Z,10.60
2023-04-24T07:21:13.992Z,10.00
2023-04-24T07:22:13.207Z,10.20
2023-04-24T07:23:13.673Z,10.40
2023-04-24T07:24:13.855Z,10.00
2023-04-24T07:25:16.349Z,10.10
2023-04-24T07:26:13.383Z,10.20
2023-04-24T07:27:14.038Z,10.30
2023-04-24T07:28:13.087Z,10.30
2023-04-24T07:29:13.360Z,10.40
2023-04-24T07:30:13.258Z,10.20
2023-04-24T07:31:13.478Z,10.50
2023-04-24T07:32:13.726Z,10.80
2023-04-24T07:33:13.739Z,10.20
2023-04-24T07:34:13.702Z,9.70
2023-04-24T07:35:13.904Z,10.00
2023-04-24T07:36:13.082Z,10.00
2023-04-24T07:37:13.326Z,10.30
2023-04-24T07:38:13.422Z,9.90
2023-04-24T07:39:13.370Z,9.80
2023-04-24T07:40:13.438Z,9.60
2023-04-24T07:41:13.338Z,10.00
2023-04-24T07:42:13.356Z,10.10
2023-04-24T07:43:13.714Z,9.50
2023-04-24T07:44:13.754Z,9.80
2023-04-24T07:45:13.722Z,9.90
2023-04-24T07:46:13.670Z,10.00
2023-04-24T07:47:13.912Z,9.80
2023-04-24T07:48:13.017Z,9.60
2023-04-24T07:49:14.471Z,9.40
2023-04-24T07:50:13.506Z,9.70
2023-04-24T07:51:13.475Z,9.70
2023-04-24T07:52:13.388Z,9.90
2023-04-24T07:53:13.345Z,9.90
2023-04-24T07:54:13.869Z,10.30
2023-04-24T07:55:13.822Z,9.90
2023-04-24T07:56:13.685Z,10.30
2023-04-24T07:57:14.367Z,9.80
2023-04-24T07:58:13.543Z,9.80
2023-04-24T07:59:13.942Z,9.50
2023-04-24T08:00:13.068Z,9.50
2023-04-24T08:01:13.930Z,9.80
2023-04-24T08:02:13.296Z,9.80
2023-04-24T08:03:13.431Z,9.70
2023-04-24T08:04:23.701Z,10.10
2023-04-24T08:05:14.135Z,10.20
2023-04-24T08:06:14.044Z,10.20
2023-04-24T08:07:12.929Z,10.20
2023-04-24T08:08:18.232Z,9.80
2023-04-24T08:09:13.333Z,9.70
2023-04-24T08:10:13.402Z,10.00
2023-04-24T08:11:18.531Z,9.90
2023-04-24T08:12:13.843Z,10.00
2023-04-24T08:13:13.922Z,10.00
2023-04-24T08:14:12.870Z,10.00
2023-04-24T08:15:13.033Z,10.00
2023-04-24T08:16:13.218Z,9.60
2023-04-24T08:17:13.693Z,9.60
2023-04-24T08:18:13.624Z,9.60
2023-04-24T08:19:13.553Z,9.70
2023-04-24T08:20:13.602Z,9.40
2023-04-24T08:21:13.852Z,9.10
2023-04-24T08:22:14.127Z,9.10
2023-04-24T08:23:13.874Z,8.80
2023-04-24T08:24:14.186Z,8.80
2023-04-24T08:25:13.094Z,8.90
2023-04-24T08:26:13.432Z,8.80
2023-04-24T08:27:13.382Z,8.90
2023-04-24T08:28:14.574Z,8.60
2023-04-24T08:29:13.109Z,8.80
2023-04-24T08:30:13.133Z,9.10
2023-04-24T08:31:13.299Z,9.20
2023-04-24T08:32:13.729Z,9.00
2023-04-24T08:33:14.792Z,9.50
2023-04-24T08:34:13.678Z,9.70
2023-04-24T08:35:13.735Z,9.70
2023-04-24T08:36:14.125Z,9.10
2023-04-24T08:37:13.379Z,9.00
2023-04-24T08:38:13.364Z,9.20
2023-04-24T08:39:13.426Z,9.30
2023-04-24T08:40:13.794Z,9.60
2023-04-24T08:41:14.056Z,9.10
2023-04-24T08:42:13.449Z,8.90
2023-04-24T08:43:13.395Z,9.00
2023-04-24T08:44:13.249Z,9.10
2023-04-24T08:45:13.271Z,8.90
2023-04-24T08:46:13.276Z,8.80
2023-04-24T08:47:14.642Z,9.00
2023-04-24T08:48:23.412Z,9.00
2023-04-24T08:49:13.875Z,9.00
2023-04-24T08:50:13.784Z,8.90
2023-04-24T08:52:13.325Z,8.70
2023-04-24T08:53:13.286Z,8.50
2023-04-24T08:54:13.346Z,8.90
2023-04-24T08:55:14.341Z,8.90
2023-04-24T08:56:13.413Z,9.00
2023-04-24T08:57:13.300Z,8.90
2023-04-24T08:58:13.373Z,9.00
2023-04-24T08:59:13.484Z,8.70
2023-04-24T09:00:13.342Z,8.50
2023-04-24T09:01:13.557Z,8.60
2023-04-24T09:02:13.544Z,8.60
2023-04-24T09:03:13.823Z,8.90
2023-04-24T09:04:14.276Z,8.90
2023-04-24T09:05:13.833Z,8.80
2023-04-24T09:06:13.877Z,8.90
2023-04-24T09:07:12.999Z,8.80
2023-04-24T09:08:13.185Z,8.80
2023-04-24T09:09:13.396Z,8.70
2023-04-24T09:10:13.574Z,9.10
2023-04-24T09:11:13.544Z,8.30
2023-04-24T09:12:13.511Z,8.60
2023-04-24T09:13:13.400Z,8.60
2023-04-24T09:14:13.274Z,8.90
2023-04-24T09:15:13.666Z,8.90
2023-04-24T09:16:13.834Z,8.70
2023-04-24T09:17:13.845Z,8.70
2023-04-24T09:18:13.183Z,8.80
2023-04-24T09:19:13.671Z,8.50
2023-04-24T09:20:13.861Z,8.70
2023-04-24T09:21:13.918Z,8.30
2023-04-24T09:22:12.861Z,8.40
2023-04-24T09:23:14.047Z,8.50
2023-04-24T09:24:12.910Z,8.50
2023-04-24T09:25:13.194Z,9.10
2023-04-24T09:26:13.079Z,8.70
2023-04-24T09:27:13.186Z,8.30
2023-04-24T09:29:29.335Z,8.40
2023-04-24T09:30:18.246Z,8.60
2023-04-24T09:31:13.871Z,8.40
2023-04-24T09:32:38.451Z,8.40
2023-04-24T09:33:18.924Z,8.70
2023-04-24T09:35:19.016Z,8.80
2023-04-24T09:37:29.193Z,8.70
2023-04-24T09:38:35.472Z,8.90
2023-04-24T09:39:13.364Z,8.70
2023-04-24T09:40:23.466Z,8.80
2023-04-24T09:41:19.652Z,8.80
2023-04-24T09:42:13.948Z,8.80
2023-04-24T09:43:13.419Z,8.80
2023-04-24T09:44:13.423Z,8.70
2023-04-24T09:45:15.533Z,8.90
2023-04-24T09:46:13.416Z,9.20
2023-04-24T09:47:14.686Z,8.70
2023-04-24T09:48:14.000Z,8.80
2023-04-24T09:49:13.094Z,9.20
2023-04-24T09:50:13.204Z,9.10
2023-04-24T09:51:13.570Z,9.10
2023-04-24T09:52:13.656Z,9.00
2023-04-24T09:53:13.791Z,9.30
2023-04-24T09:54:23.426Z,9.10
2023-04-24T09:56:23.549Z,9.40
2023-04-24T09:57:19.369Z,9.50
2023-04-24T09:58:13.296Z,9.20
2023-04-24T09:59:18.334Z,9.10
2023-04-24T10:00:19.712Z,9.40
2023-04-24T10:01:14.761Z,9.50
2023-04-24T10:02:13.877Z,9.20
2023-04-24T10:03:13.119Z,9.10
2023-04-24T10:04:18.737Z,9.20
2023-04-24T10:05:29.055Z,9.30
2023-04-24T10:06:13.068Z,9.10
2023-04-24T10:07:13.338Z,9.10
2023-04-24T10:08:38.178Z,9.10
2023-04-24T10:09:13.458Z,9.00
2023-04-24T10:10:13.887Z,8.70
2023-04-24T10:11:13.261Z,8.80
2023-04-24T10:12:30.602Z,8.70
2023-04-24T10:13:14.424Z,8.70
2023-04-24T10:14:13.853Z,8.70
2023-04-24T10:15:14.035Z,8.70
2023-04-24T10:16:13.970Z,9.10
2023-04-24T10:17:18.297Z,9.00
2023-04-24T10:18:13.624Z,8.80
2023-04-24T10:19:14.827Z,9.10
2023-04-24T10:20:14.323Z,8.80
2023-04-24T10:21:14.017Z,9.00
2023-04-24T10:22:13.131Z,9.00
2023-04-24T10:23:13.503Z,9.10
2023-04-24T10:24:13.559Z,8.70
2023-04-24T10:25:13.856Z,8.80
2023-04-24T10:26:36.914Z,8.40
2023-04-24T10:27:13.516Z,8.60
2023-04-24T10:28:13.514Z,8.70
2023-04-24T10:29:14.246Z,8.60
2023-04-24T10:30:13.677Z,8.40
2023-04-24T10:31:13.857Z,8.60
2023-04-24T10:32:13.260Z,8.60
2023-04-24T10:33:13.294Z,8.70
2023-04-24T10:34:13.578Z,8.60
2023-04-24T10:35:13.535Z,8.30
2023-04-24T10:36:14.506Z,8.40
2023-04-24T10:37:13.383Z,8.40
2023-04-24T10:38:13.340Z,8.60
2023-04-24T10:39:13.398Z,8.40
2023-04-24T10:40:13.862Z,8.40
2023-04-24T10:41:13.820Z,8.50
2023-04-24T10:42:14.270Z,8.40
2023-04-24T10:43:13.186Z,8.70
2023-04-24T10:44:13.038Z,8.50
2023-04-24T10:45:12.968Z,8.70
2023-04-24T10:46:12.962Z,8.70
2023-04-24T10:47:13.227Z,8.50
2023-04-24T10:48:13.343Z,9.00
2023-04-24T10:49:13.417Z,9.10
2023-04-24T10:50:13.274Z,8.80
2023-04-24T10:51:13.361Z,8.80
2023-04-24T10:52:13.730Z,9.10
2023-04-24T10:53:13.738Z,8.90
2023-04-24T10:54:13.751Z,8.70
2023-04-24T10:55:13.691Z,8.80
2023-04-24T10:56:13.586Z,9.30
2023-04-24T10:57:13.556Z,8.90
2023-04-24T10:58:13.432Z,9.20
2023-04-24T10:59:13.553Z,9.10
2023-04-24T11:00:13.958Z,9.40
2023-04-24T11:01:13.004Z,8.90
2023-04-24T11:02:12.997Z,8.90
2023-04-24T11:03:13.063Z,8.80
2023-04-24T11:04:13.071Z,9.20
2023-04-24T11:05:13.064Z,9.20
2023-04-24T11:06:12.937Z,9.10
2023-04-24T11:07:13.185Z,9.10
2023-04-24T11:08:13.298Z,9.10
2023-04-24T11:09:13.429Z,9.00
2023-04-24T11:10:13.584Z,9.40
2023-04-24T11:11:13.783Z,9.20
2023-04-24T11:12:13.876Z,9.00
2023-04-24T11:13:13.315Z,8.80
2023-04-24T11:14:13.592Z,9.10
2023-04-24T11:15:13.526Z,9.10
2023-04-24T11:16:13.584Z,9.20
2023-04-24T11:17:13.592Z,9.00
2023-04-24T11:18:13.520Z,9.30
2023-04-24T11:19:13.656Z,8.90
2023-04-24T11:20:26.101Z,9.10
2023-04-24T11:21:13.859Z,9.10
2023-04-24T11:22:13.273Z,9.20
2023-04-24T11:23:13.206Z,9.20
2023-04-24T11:24:13.086Z,9.20
2023-04-24T11:25:13.056Z,9.40
2023-04-24T11:26:12.929Z,9.80
2023-04-24T11:27:14.030Z,9.40
2023-04-24T11:28:13.140Z,9.60
2023-04-24T11:29:13.367Z,9.40
2023-04-24T11:30:13.654Z,9.60
2023-04-24T11:31:13.974Z,9.70
2023-04-24T11:32:12.951Z,9.30
2023-04-24T11:33:13.214Z,9.40
2023-04-24T11:34:13.464Z,9.30
2023-04-24T11:35:13.580Z,9.20
2023-04-24T11:36:13.688Z,9.30
2023-04-24T11:37:13.666Z,9.30
2023-04-24T11:38:24.030Z,9.60
2023-04-24T11:39:13.025Z,9.20
2023-04-24T11:40:18.085Z,9.40
2023-04-24T11:41:13.203Z,9.50
2023-04-24T11:42:13.299Z,9.40
2023-04-24T11:43:13.317Z,9.30
2023-04-24T11:44:13.218Z,9.20
2023-04-24T11:45:13.439Z,9.00
2023-04-24T11:46:13.606Z,9.40
2023-04-24T11:47:12.768Z,9.70
2023-04-24T11:48:13.764Z,9.80
2023-04-24T11:49:13.861Z,9.50
2023-04-24T11:50:13.772Z,9.60
2023-04-24T11:51:13.668Z,9.90
2023-04-24T11:52:13.502Z,9.90
2023-04-24T11:53:13.538Z,9.90
2023-04-24T11:54:13.440Z,10.40
2023-04-24T11:55:13.472Z,10.40
2023-04-24T11:56:13.382Z,10.70
2023-04-24T11:57:13.342Z,11.10
2023-04-24T11:58:13.208Z,11.50
2023-04-24T11:59:13.140Z,10.70
2023-04-24T12:00:13.636Z,10.70
2023-04-24T12:01:13.163Z,10.90
2023-04-24T12:02:13.217Z,10.90
2023-04-24T12:03:14.052Z,10.60
2023-04-24T12:04:13.370Z,10.80
2023-04-24T12:05:13.633Z,10.40
2023-04-24T12:06:13.334Z,10.30
2023-04-24T12:07:13.376Z,10.00
2023-04-24T12:08:13.441Z,10.20
2023-04-24T12:09:18.194Z,9.60
2023-04-24T12:10:13.646Z,9.70
2023-04-24T12:11:13.548Z,9.80
2023-04-24T12:12:13.704Z,9.60
2023-04-24T12:13:13.669Z,9.50
2023-04-24T12:14:13.594Z,9.50
2023-04-24T12:15:13.536Z,9.40
2023-04-24T12:16:13.704Z,9.40
2023-04-24T12:17:14.046Z,9.40
2023-04-24T12:18:13.536Z,9.50
2023-04-24T12:19:13.542Z,9.30
2023-04-24T12:20:14.306Z,9.30
2023-04-24T12:21:13.412Z,9.20
2023-04-24T12:22:13.516Z,9.40
2023-04-24T12:23:13.587Z,9.30
2023-04-24T12:24:13.891Z,9.70
2023-04-24T12:25:13.132Z,9.40
2023-04-24T12:26:13.108Z,10.00
2023-04-24T12:27:13.148Z,9.80
2023-04-24T12:28:13.210Z,9.80
2023-04-24T12:29:13.076Z,9.50
2023-04-24T12:30:12.921Z,9.70
2023-04-24T12:31:12.845Z,10.40
2023-04-24T12:32:12.991Z,10.40
2023-04-24T12:33:13.073Z,10.70
2023-04-24T12:34:13.085Z,10.90
2023-04-24T12:35:12.929Z,11.60
2023-04-24T12:36:12.835Z,11.80
2023-04-24T12:37:13.767Z,11.80
2023-04-24T12:38:15.051Z,12.30
2023-04-24T12:39:12.875Z,12.20
2023-04-24T12:40:13.901Z,11.70
2023-04-24T12:41:12.868Z,11.60
2023-04-24T12:42:13.973Z,12.00
2023-04-24T12:43:13.119Z,11.80
2023-04-24T12:44:13.492Z,10.80
2023-04-24T12:45:13.631Z,10.70
2023-04-24T12:46:15.219Z,11.20
2023-04-24T12:47:13.301Z,10.60
2023-04-24T12:48:13.432Z,10.60
2023-04-24T12:49:13.840Z,10.70
2023-04-24T12:50:13.881Z,10.40
2023-04-24T12:51:12.950Z,10.90
2023-04-24T12:52:12.929Z,10.80
2023-04-24T12:53:12.787Z,10.90
2023-04-24T12:54:13.911Z,10.60
2023-04-24T12:55:13.133Z,10.30
2023-04-24T12:56:13.244Z,10.10
2023-04-24T12:57:13.794Z,10.40
2023-04-24T12:58:13.735Z,10.30
2023-04-24T12:59:13.622Z,10.70
2023-04-24T13:00:13.531Z,10.30
2023-04-24T13:01:13.644Z,10.10
2023-04-24T13:02:13.862Z,9.90
2023-04-24T13:03:13.189Z,10.40
2023-04-24T13:04:13.572Z,10.00
2023-04-24T13:05:13.489Z,9.90
2023-04-24T13:06:13.577Z,10.30
2023-04-24T13:07:14.709Z,10.10
2023-04-24T13:08:13.819Z,10.30
2023-04-24T13:09:13.717Z,10.10
2023-04-24T13:10:14.311Z,10.00
2023-04-24T13:11:13.359Z,9.90